sensor_id;sensor_type;location;lat;lon;timestamp;temperature;humidity
59556;DHT22;45374;52.746;6.304;2022-12-18T00:00:42;-2.70;99.90
59556;DHT22;45374;52.746;6.304;2022-12-18T00:03:08;-2.70;99.90
59556;DHT22;45374;52.746;6.304;2022-12-18T00:05:34;-2.80;99.90
59556;DHT22;45374;52.746;6.304;2022-12-18T00:08:00;-2.80;99.90
59556;DHT22;45374;52.746;6.304;2022-12-18T00:10:26;-2.80;99.90
59556;DHT22;45374;52.746;6.304;2022-12-18T00:12:52;-2.80;99.90
59556;DHT22;45374;52.746;6.304;2022-12-18T00:15:17;-2.80;99.90
59556;DHT22;45374;52.746;6.304;2022-12-18T00:17:43;-2.80;99.90
59556;DHT22;45374;52.746;6.304;2022-12-18T00:20:08;-2.80;99.90
59556;DHT22;45374;52.746;6.304;2022-12-18T00:22:34;-2.80;99.90
59556;DHT22;45374;52.746;6.304;2022-12-18T00:24:59;-2.90;99.90
59556;DHT22;45374;52.746;6.304;2022-12-18T00:27:25;-2.90;99.90
59556;DHT22;45374;52.746;6.304;2022-12-18T00:29:50;-2.90;99.90
59556;DHT22;45374;52.746;6.304;2022-12-18T00:32:16;-2.90;99.90
59556;DHT22;45374;52.746;6.304;2022-12-18T00:34:41;-2.90;99.90
59556;DHT22;45374;52.746;6.304;2022-12-18T00:37:07;-3.00;99.90
59556;DHT22;45374;52.746;6.304;2022-12-18T00:39:32;-2.90;99.90
59556;DHT22;45374;52.746;6.304;2022-12-18T00:41:58;-2.90;99.90
59556;DHT22;45374;52.746;6.304;2022-12-18T00:44:42;-3.00;99.90
59556;DHT22;45374;52.746;6.304;2022-12-18T00:47:08;-3.00;99.90
59556;DHT22;45374;52.746;6.304;2022-12-18T00:49:33;-2.90;99.90
59556;DHT22;45374;52.746;6.304;2022-12-18T00:51:59;-3.00;99.90
59556;DHT22;45374;52.746;6.304;2022-12-18T00:54:24;-3.00;99.90
59556;DHT22;45374;52.746;6.304;2022-12-18T00:56:50;-3.00;99.90
59556;DHT22;45374;52.746;6.304;2022-12-18T00:59:16;-2.90;99.90
59556;DHT22;45374;52.746;6.304;2022-12-18T01:01:42;-3.00;99.90
59556;DHT22;45374;52.746;6.304;2022-12-18T01:04:07;-3.10;99.90
59556;DHT22;45374;52.746;6.304;2022-12-18T01:06:33;-3.10;99.90
59556;DHT22;45374;52.746;6.304;2022-12-18T01:08:58;-3.10;99.90
59556;DHT22;45374;52.746;6.304;2022-12-18T01:11:24;-3.20;99.90
59556;DHT22;45374;52.746;6.304;2022-12-18T01:13:51;-3.10;99.90
59556;DHT22;45374;52.746;6.304;2022-12-18T01:16:17;-3.10;99.90
59556;DHT22;45374;52.746;6.304;2022-12-18T01:18:42;-3.20;99.90
59556;DHT22;45374;52.746;6.304;2022-12-18T01:21:08;-3.20;99.90
59556;DHT22;45374;52.746;6.304;2022-12-18T01:23:34;-3.20;99.90
59556;DHT22;45374;52.746;6.304;2022-12-18T01:26:33;-3.30;99.90
59556;DHT22;45374;52.746;6.304;2022-12-18T01:28:57;-3.40;99.90
59556;DHT22;45374;52.746;6.304;2022-12-18T01:31:24;-3.50;99.90
59556;DHT22;45374;52.746;6.304;2022-12-18T01:33:50;-3.60;99.90
59556;DHT22;45374;52.746;6.304;2022-12-18T01:36:17;-3.70;99.90
59556;DHT22;45374;52.746;6.304;2022-12-18T01:38:43;-3.80;99.90
59556;DHT22;45374;52.746;6.304;2022-12-18T01:41:08;-3.90;99.90
59556;DHT22;45374;52.746;6.304;2022-12-18T01:43:48;-3.90;99.90
59556;DHT22;45374;52.746;6.304;2022-12-18T01:46:14;-4.00;99.90
59556;DHT22;45374;52.746;6.304;2022-12-18T01:48:40;-4.10;99.90
59556;DHT22;45374;52.746;6.304;2022-12-18T01:51:06;-4.20;99.90
59556;DHT22;45374;52.746;6.304;2022-12-18T01:53:33;-4.20;99.90
59556;DHT22;45374;52.746;6.304;2022-12-18T01:55:59;-4.30;99.90
59556;DHT22;45374;52.746;6.304;2022-12-18T01:59:07;-4.30;99.90
59556;DHT22;45374;52.746;6.304;2022-12-18T02:01:13;-4.40;99.90
59556;DHT22;45374;52.746;6.304;2022-12-18T02:03:41;-4.50;99.90
59556;DHT22;45374;52.746;6.304;2022-12-18T02:06:10;-4.60;99.90
59556;DHT22;45374;52.746;6.304;2022-12-18T02:08:59;-4.60;99.90
59556;DHT22;45374;52.746;6.304;2022-12-18T02:14:08;-4.80;99.90
59556;DHT22;45374;52.746;6.304;2022-12-18T02:16:39;-4.80;99.90
59556;DHT22;45374;52.746;6.304;2022-12-18T02:19:11;-4.80;99.90
59556;DHT22;45374;52.746;6.304;2022-12-18T02:21:58;-4.90;99.90
59556;DHT22;45374;52.746;6.304;2022-12-18T02:25:11;-4.90;99.90
59556;DHT22;45374;52.746;6.304;2022-12-18T02:27:15;-4.90;99.90
59556;DHT22;45374;52.746;6.304;2022-12-18T02:29:44;-5.00;99.90
59556;DHT22;45374;52.746;6.304;2022-12-18T02:32:13;-5.10;99.90
59556;DHT22;45374;52.746;6.304;2022-12-18T02:34:39;-5.10;99.90
59556;DHT22;45374;52.746;6.304;2022-12-18T02:37:07;-5.20;99.90
59556;DHT22;45374;52.746;6.304;2022-12-18T02:39:35;-5.20;99.90
59556;DHT22;45374;52.746;6.304;2022-12-18T02:42:01;-5.30;99.90
59556;DHT22;45374;52.746;6.304;2022-12-18T02:44:34;-5.30;99.90
59556;DHT22;45374;52.746;6.304;2022-12-18T02:47:00;-5.30;99.90
59556;DHT22;45374;52.746;6.304;2022-12-18T02:49:50;-5.30;99.90
59556;DHT22;45374;52.746;6.304;2022-12-18T02:52:28;-5.30;99.90
59556;DHT22;45374;52.746;6.304;2022-12-18T02:57:49;-5.40;99.90
59556;DHT22;45374;52.746;6.304;2022-12-18T03:00:20;-5.40;99.90
59556;DHT22;45374;52.746;6.304;2022-12-18T03:07:39;-5.40;99.90
59556;DHT22;45374;52.746;6.304;2022-12-18T03:10:06;-5.50;99.90
59556;DHT22;45374;52.746;6.304;2022-12-18T03:12:35;-5.50;99.90
59556;DHT22;45374;52.746;6.304;2022-12-18T03:15:07;-5.50;99.90
59556;DHT22;45374;52.746;6.304;2022-12-18T03:17:34;-5.50;99.90
59556;DHT22;45374;52.746;6.304;2022-12-18T03:20:04;-5.60;99.90
59556;DHT22;45374;52.746;6.304;2022-12-18T03:22:32;-5.60;99.90
59556;DHT22;45374;52.746;6.304;2022-12-18T03:24:58;-5.60;99.90
59556;DHT22;45374;52.746;6.304;2022-12-18T03:27:25;-5.70;99.90
59556;DHT22;45374;52.746;6.304;2022-12-18T03:29:53;-5.70;99.90
59556;DHT22;45374;52.746;6.304;2022-12-18T03:32:25;-5.70;99.90
59556;DHT22;45374;52.746;6.304;2022-12-18T03:34:52;-5.70;99.90
59556;DHT22;45374;52.746;6.304;2022-12-18T03:37:20;-5.70;99.90
59556;DHT22;45374;52.746;6.304;2022-12-18T03:39:45;-5.70;99.90
59556;DHT22;45374;52.746;6.304;2022-12-18T03:42:15;-5.70;99.90
59556;DHT22;45374;52.746;6.304;2022-12-18T03:44:54;-5.70;99.90
59556;DHT22;45374;52.746;6.304;2022-12-18T03:47:25;-5.80;99.90
59556;DHT22;45374;52.746;6.304;2022-12-18T03:52:31;-5.80;99.90
59556;DHT22;45374;52.746;6.304;2022-12-18T03:54:59;-5.90;99.90
59556;DHT22;45374;52.746;6.304;2022-12-18T03:57:25;-5.90;99.90
59556;DHT22;45374;52.746;6.304;2022-12-18T03:59:54;-5.90;99.90
59556;DHT22;45374;52.746;6.304;2022-12-18T04:02:21;-5.90;99.90
59556;DHT22;45374;52.746;6.304;2022-12-18T04:04:47;-5.90;99.90
59556;DHT22;45374;52.746;6.304;2022-12-18T04:07:15;-5.90;99.90
59556;DHT22;45374;52.746;6.304;2022-12-18T04:09:41;-6.00;99.90
59556;DHT22;45374;52.746;6.304;2022-12-18T04:12:08;-6.00;99.90
59556;DHT22;45374;52.746;6.304;2022-12-18T04:14:33;-6.00;99.90
59556;DHT22;45374;52.746;6.304;2022-12-18T04:17:01;-6.00;99.90
59556;DHT22;45374;52.746;6.304;2022-12-18T04:19:26;-6.10;99.90
59556;DHT22;45374;52.746;6.304;2022-12-18T04:21:52;-6.00;99.90
59556;DHT22;45374;52.746;6.304;2022-12-18T04:24:17;-6.10;99.90
59556;DHT22;45374;52.746;6.304;2022-12-18T04:26:43;-6.10;99.90
59556;DHT22;45374;52.746;6.304;2022-12-18T04:29:08;-6.10;99.90
59556;DHT22;45374;52.746;6.304;2022-12-18T04:31:34;-6.00;99.90
59556;DHT22;45374;52.746;6.304;2022-12-18T04:33:59;-6.00;99.90
59556;DHT22;45374;52.746;6.304;2022-12-18T04:36:24;-6.10;99.90
59556;DHT22;45374;52.746;6.304;2022-12-18T04:38:53;-6.10;99.90
59556;DHT22;45374;52.746;6.304;2022-12-18T04:41:18;-6.10;99.90
59556;DHT22;45374;52.746;6.304;2022-12-18T04:43:44;-6.10;99.90
59556;DHT22;45374;52.746;6.304;2022-12-18T04:46:09;-6.10;99.90
59556;DHT22;45374;52.746;6.304;2022-12-18T04:48:35;-6.10;99.90
59556;DHT22;45374;52.746;6.304;2022-12-18T04:51:01;-6.10;99.90
59556;DHT22;45374;52.746;6.304;2022-12-18T04:53:26;-6.10;99.90
59556;DHT22;45374;52.746;6.304;2022-12-18T04:56:02;-6.20;99.90
59556;DHT22;45374;52.746;6.304;2022-12-18T04:58:27;-6.20;99.90
59556;DHT22;45374;52.746;6.304;2022-12-18T05:00:53;-6.20;99.90
59556;DHT22;45374;52.746;6.304;2022-12-18T05:03:18;-6.20;99.90
59556;DHT22;45374;52.746;6.304;2022-12-18T05:05:44;-6.20;99.90
59556;DHT22;45374;52.746;6.304;2022-12-18T05:08:09;-6.20;99.90
59556;DHT22;45374;52.746;6.304;2022-12-18T05:10:35;-6.30;99.90
59556;DHT22;45374;52.746;6.304;2022-12-18T05:13:00;-6.20;99.90
59556;DHT22;45374;52.746;6.304;2022-12-18T05:15:27;-6.20;99.90
59556;DHT22;45374;52.746;6.304;2022-12-18T05:17:52;-6.30;99.90
59556;DHT22;45374;52.746;6.304;2022-12-18T05:20:18;-6.30;99.90
59556;DHT22;45374;52.746;6.304;2022-12-18T05:22:44;-6.40;99.90
59556;DHT22;45374;52.746;6.304;2022-12-18T05:25:09;-6.40;99.90
59556;DHT22;45374;52.746;6.304;2022-12-18T05:27:35;-6.40;99.90
59556;DHT22;45374;52.746;6.304;2022-12-18T05:30:00;-6.40;99.90
59556;DHT22;45374;52.746;6.304;2022-12-18T05:32:26;-6.50;99.90
59556;DHT22;45374;52.746;6.304;2022-12-18T05:34:51;-6.50;99.90
59556;DHT22;45374;52.746;6.304;2022-12-18T05:37:17;-6.50;99.90
59556;DHT22;45374;52.746;6.304;2022-12-18T05:39:43;-6.50;99.90
59556;DHT22;45374;52.746;6.304;2022-12-18T05:42:08;-6.50;99.90
59556;DHT22;45374;52.746;6.304;2022-12-18T05:44:34;-6.50;99.90
59556;DHT22;45374;52.746;6.304;2022-12-18T05:46:59;-6.50;99.90
59556;DHT22;45374;52.746;6.304;2022-12-18T05:49:24;-6.60;99.90
59556;DHT22;45374;52.746;6.304;2022-12-18T05:51:50;-6.60;99.90
59556;DHT22;45374;52.746;6.304;2022-12-18T05:54:15;-6.60;99.90
59556;DHT22;45374;52.746;6.304;2022-12-18T05:56:41;-6.60;99.90
59556;DHT22;45374;52.746;6.304;2022-12-18T05:59:07;-6.70;99.90
59556;DHT22;45374;52.746;6.304;2022-12-18T06:01:32;-6.70;99.90
59556;DHT22;45374;52.746;6.304;2022-12-18T06:03:58;-6.70;99.90
59556;DHT22;45374;52.746;6.304;2022-12-18T06:06:24;-6.70;99.90
59556;DHT22;45374;52.746;6.304;2022-12-18T06:08:50;-6.70;99.90
59556;DHT22;45374;52.746;6.304;2022-12-18T06:11:17;-6.70;99.90
59556;DHT22;45374;52.746;6.304;2022-12-18T06:13:42;-6.80;99.90
59556;DHT22;45374;52.746;6.304;2022-12-18T06:16:08;-6.80;99.90
59556;DHT22;45374;52.746;6.304;2022-12-18T06:18:33;-6.80;99.90
59556;DHT22;45374;52.746;6.304;2022-12-18T06:20:59;-6.80;99.90
59556;DHT22;45374;52.746;6.304;2022-12-18T06:23:25;-6.80;99.90
59556;DHT22;45374;52.746;6.304;2022-12-18T06:25:50;-6.80;99.90
59556;DHT22;45374;52.746;6.304;2022-12-18T06:28:16;-6.80;99.90
59556;DHT22;45374;52.746;6.304;2022-12-18T06:30:45;-6.80;99.90
59556;DHT22;45374;52.746;6.304;2022-12-18T06:33:10;-6.80;99.90
59556;DHT22;45374;52.746;6.304;2022-12-18T06:35:36;-6.80;99.90
59556;DHT22;45374;52.746;6.304;2022-12-18T06:38:02;-6.80;99.90
59556;DHT22;45374;52.746;6.304;2022-12-18T06:40:28;-6.80;99.90
59556;DHT22;45374;52.746;6.304;2022-12-18T06:42:53;-6.80;99.90
59556;DHT22;45374;52.746;6.304;2022-12-18T06:45:19;-6.80;99.90
59556;DHT22;45374;52.746;6.304;2022-12-18T06:47:44;-6.80;99.90
59556;DHT22;45374;52.746;6.304;2022-12-18T06:50:10;-6.90;99.90
59556;DHT22;45374;52.746;6.304;2022-12-18T06:52:35;-6.90;99.90
59556;DHT22;45374;52.746;6.304;2022-12-18T06:55:02;-6.90;99.90
59556;DHT22;45374;52.746;6.304;2022-12-18T06:57:27;-6.90;99.90
59556;DHT22;45374;52.746;6.304;2022-12-18T06:59:53;-6.90;99.90
59556;DHT22;45374;52.746;6.304;2022-12-18T07:02:18;-6.90;99.90
59556;DHT22;45374;52.746;6.304;2022-12-18T07:04:44;-6.90;99.90
59556;DHT22;45374;52.746;6.304;2022-12-18T07:07:09;-6.90;99.90
59556;DHT22;45374;52.746;6.304;2022-12-18T07:09:35;-6.90;99.90
59556;DHT22;45374;52.746;6.304;2022-12-18T07:12:00;-6.90;99.90
59556;DHT22;45374;52.746;6.304;2022-12-18T07:14:26;-6.90;99.90
59556;DHT22;45374;52.746;6.304;2022-12-18T07:16:51;-6.90;99.90
59556;DHT22;45374;52.746;6.304;2022-12-18T07:19:17;-6.90;99.90
59556;DHT22;45374;52.746;6.304;2022-12-18T07:21:42;-6.90;99.90
59556;DHT22;45374;52.746;6.304;2022-12-18T07:24:08;-6.90;99.90
59556;DHT22;45374;52.746;6.304;2022-12-18T07:26:33;-6.90;99.90
59556;DHT22;45374;52.746;6.304;2022-12-18T07:28:59;-6.80;99.90
59556;DHT22;45374;52.746;6.304;2022-12-18T07:31:24;-6.80;99.90
59556;DHT22;45374;52.746;6.304;2022-12-18T07:33:50;-6.80;99.90
59556;DHT22;45374;52.746;6.304;2022-12-18T07:36:16;-6.80;99.90
59556;DHT22;45374;52.746;6.304;2022-12-18T07:38:41;-6.80;99.90
59556;DHT22;45374;52.746;6.304;2022-12-18T07:41:11;-6.80;99.90
59556;DHT22;45374;52.746;6.304;2022-12-18T07:43:37;-6.80;99.90
59556;DHT22;45374;52.746;6.304;2022-12-18T07:46:03;-6.80;99.90
59556;DHT22;45374;52.746;6.304;2022-12-18T07:48:29;-6.70;99.90
59556;DHT22;45374;52.746;6.304;2022-12-18T07:51:01;-6.80;99.90
59556;DHT22;45374;52.746;6.304;2022-12-18T07:53:27;-6.70;99.90
59556;DHT22;45374;52.746;6.304;2022-12-18T07:55:59;-6.70;99.90
59556;DHT22;45374;52.746;6.304;2022-12-18T07:58:25;-6.60;99.90
59556;DHT22;45374;52.746;6.304;2022-12-18T08:00:51;-6.60;99.90
59556;DHT22;45374;52.746;6.304;2022-12-18T08:03:17;-6.60;99.90
59556;DHT22;45374;52.746;6.304;2022-12-18T08:05:43;-6.60;99.90
59556;DHT22;45374;52.746;6.304;2022-12-18T08:08:08;-6.50;99.90
59556;DHT22;45374;52.746;6.304;2022-12-18T08:10:34;-6.50;99.90
59556;DHT22;45374;52.746;6.304;2022-12-18T08:12:59;-6.40;99.90
59556;DHT22;45374;52.746;6.304;2022-12-18T08:15:25;-6.40;99.90
59556;DHT22;45374;52.746;6.304;2022-12-18T08:17:50;-6.30;99.90
59556;DHT22;45374;52.746;6.304;2022-12-18T08:20:16;-6.30;99.90
59556;DHT22;45374;52.746;6.304;2022-12-18T08:22:43;-6.20;99.90
59556;DHT22;45374;52.746;6.304;2022-12-18T08:27:41;-6.10;99.90
59556;DHT22;45374;52.746;6.304;2022-12-18T08:30:07;-6.10;99.90
59556;DHT22;45374;52.746;6.304;2022-12-18T08:32:32;-6.10;99.90
59556;DHT22;45374;52.746;6.304;2022-12-18T08:34:58;-6.00;99.90
59556;DHT22;45374;52.746;6.304;2022-12-18T08:37:24;-5.90;99.90
59556;DHT22;45374;52.746;6.304;2022-12-18T08:39:49;-5.80;99.90
59556;DHT22;45374;52.746;6.304;2022-12-18T08:42:15;-5.80;99.90
59556;DHT22;45374;52.746;6.304;2022-12-18T08:44:59;-5.70;99.90
59556;DHT22;45374;52.746;6.304;2022-12-18T08:47:25;-5.70;99.90
59556;DHT22;45374;52.746;6.304;2022-12-18T08:49:51;-5.60;99.90
59556;DHT22;45374;52.746;6.304;2022-12-18T08:52:28;-5.60;99.90
59556;DHT22;45374;52.746;6.304;2022-12-18T08:54:54;-5.50;99.90
59556;DHT22;45374;52.746;6.304;2022-12-18T08:57:19;-5.40;99.90
59556;DHT22;45374;52.746;6.304;2022-12-18T08:59:44;-5.30;99.90
59556;DHT22;45374;52.746;6.304;2022-12-18T09:02:10;-5.30;99.90
59556;DHT22;45374;52.746;6.304;2022-12-18T09:04:36;-5.20;99.90
59556;DHT22;45374;52.746;6.304;2022-12-18T09:07:02;-5.10;99.90
59556;DHT22;45374;52.746;6.304;2022-12-18T09:09:27;-5.00;99.90
59556;DHT22;45374;52.746;6.304;2022-12-18T09:11:53;-4.90;99.90
59556;DHT22;45374;52.746;6.304;2022-12-18T09:14:18;-4.80;99.90
59556;DHT22;45374;52.746;6.304;2022-12-18T09:16:56;-4.70;99.90
59556;DHT22;45374;52.746;6.304;2022-12-18T09:19:21;-4.70;99.90
59556;DHT22;45374;52.746;6.304;2022-12-18T09:21:47;-4.60;99.90
59556;DHT22;45374;52.746;6.304;2022-12-18T09:24:12;-4.40;99.90
59556;DHT22;45374;52.746;6.304;2022-12-18T09:26:38;-4.40;99.90
59556;DHT22;45374;52.746;6.304;2022-12-18T09:29:04;-4.20;99.90
59556;DHT22;45374;52.746;6.304;2022-12-18T09:31:30;-4.20;99.90
59556;DHT22;45374;52.746;6.304;2022-12-18T09:33:55;-4.10;99.90
59556;DHT22;45374;52.746;6.304;2022-12-18T09:36:21;-4.10;99.90
59556;DHT22;45374;52.746;6.304;2022-12-18T09:38:47;-4.00;99.90
59556;DHT22;45374;52.746;6.304;2022-12-18T09:41:27;-3.90;99.90
59556;DHT22;45374;52.746;6.304;2022-12-18T09:44:02;-3.90;99.90
59556;DHT22;45374;52.746;6.304;2022-12-18T09:46:36;-3.80;99.90
59556;DHT22;45374;52.746;6.304;2022-12-18T09:49:03;-3.70;99.90
59556;DHT22;45374;52.746;6.304;2022-12-18T09:51:36;-3.70;99.90
59556;DHT22;45374;52.746;6.304;2022-12-18T09:54:07;-3.60;99.90
59556;DHT22;45374;52.746;6.304;2022-12-18T09:56:37;-3.60;99.90
59556;DHT22;45374;52.746;6.304;2022-12-18T09:59:04;-3.50;99.90
59556;DHT22;45374;52.746;6.304;2022-12-18T10:01:30;-3.40;99.90
59556;DHT22;45374;52.746;6.304;2022-12-18T10:03:56;-3.40;99.90
59556;DHT22;45374;52.746;6.304;2022-12-18T10:09:07;-3.30;99.90
59556;DHT22;45374;52.746;6.304;2022-12-18T10:11:43;-3.30;99.90
59556;DHT22;45374;52.746;6.304;2022-12-18T10:14:21;-3.30;99.90
59556;DHT22;45374;52.746;6.304;2022-12-18T10:21:51;-3.30;99.90
59556;DHT22;45374;52.746;6.304;2022-12-18T10:26:53;-3.20;99.90
59556;DHT22;45374;52.746;6.304;2022-12-18T10:29:21;-3.10;99.90
59556;DHT22;45374;52.746;6.304;2022-12-18T10:31:59;-3.10;99.90
59556;DHT22;45374;52.746;6.304;2022-12-18T10:34:24;-3.00;99.90
59556;DHT22;45374;52.746;6.304;2022-12-18T10:36:50;-2.90;99.90
59556;DHT22;45374;52.746;6.304;2022-12-18T10:39:17;-2.90;99.90
59556;DHT22;45374;52.746;6.304;2022-12-18T10:41:43;-2.80;99.90
59556;DHT22;45374;52.746;6.304;2022-12-18T10:46:35;-2.70;99.90
59556;DHT22;45374;52.746;6.304;2022-12-18T10:49:00;-2.60;99.90
59556;DHT22;45374;52.746;6.304;2022-12-18T10:56:52;-2.40;99.90
59556;DHT22;45374;52.746;6.304;2022-12-18T10:59:49;-2.40;99.90
59556;DHT22;45374;52.746;6.304;2022-12-18T11:02:34;-2.30;99.90
59556;DHT22;45374;52.746;6.304;2022-12-18T11:05:00;-2.30;99.90
59556;DHT22;45374;52.746;6.304;2022-12-18T11:07:26;-2.20;99.90
59556;DHT22;45374;52.746;6.304;2022-12-18T11:10:15;-2.10;99.90
59556;DHT22;45374;52.746;6.304;2022-12-18T11:12:41;-2.10;99.90
59556;DHT22;45374;52.746;6.304;2022-12-18T11:15:13;-2.10;99.90
59556;DHT22;45374;52.746;6.304;2022-12-18T11:17:50;-2.00;99.90
59556;DHT22;45374;52.746;6.304;2022-12-18T11:23:36;-1.90;99.90
59556;DHT22;45374;52.746;6.304;2022-12-18T11:26:03;-1.80;99.90
59556;DHT22;45374;52.746;6.304;2022-12-18T11:31:23;-1.70;99.90
59556;DHT22;45374;52.746;6.304;2022-12-18T11:33:54;-1.70;99.90
59556;DHT22;45374;52.746;6.304;2022-12-18T11:36:21;-1.70;99.90
59556;DHT22;45374;52.746;6.304;2022-12-18T11:38:47;-1.60;99.90
59556;DHT22;45374;52.746;6.304;2022-12-18T11:44:00;-1.60;99.90
59556;DHT22;45374;52.746;6.304;2022-12-18T11:46:35;-1.50;99.90
59556;DHT22;45374;52.746;6.304;2022-12-18T11:49:22;-1.50;99.90
59556;DHT22;45374;52.746;6.304;2022-12-18T11:51:51;-1.50;99.90
59556;DHT22;45374;52.746;6.304;2022-12-18T11:54:17;-1.50;99.90
59556;DHT22;45374;52.746;6.304;2022-12-18T11:56:53;-1.50;99.90
59556;DHT22;45374;52.746;6.304;2022-12-18T11:59:25;-1.40;99.90
59556;DHT22;45374;52.746;6.304;2022-12-18T12:02:04;-1.40;99.90
59556;DHT22;45374;52.746;6.304;2022-12-18T12:04:40;-1.50;99.90
59556;DHT22;45374;52.746;6.304;2022-12-18T12:07:12;-1.40;99.90
59556;DHT22;45374;52.746;6.304;2022-12-18T12:09:52;-1.40;99.90
59556;DHT22;45374;52.746;6.304;2022-12-18T12:15:40;-1.40;99.90
59556;DHT22;45374;52.746;6.304;2022-12-18T12:23:18;-1.30;99.90
59556;DHT22;45374;52.746;6.304;2022-12-18T12:25:50;-1.30;99.90
59556;DHT22;45374;52.746;6.304;2022-12-18T12:31:31;-1.30;99.90
59556;DHT22;45374;52.746;6.304;2022-12-18T12:49:15;-1.20;99.90
59556;DHT22;45374;52.746;6.304;2022-12-18T12:51:44;-1.00;99.90
59556;DHT22;45374;52.746;6.304;2022-12-18T12:54:23;-0.90;99.90
59556;DHT22;45374;52.746;6.304;2022-12-18T12:57:01;-1.00;99.90
59556;DHT22;45374;52.746;6.304;2022-12-18T13:05:21;-0.90;99.90
59556;DHT22;45374;52.746;6.304;2022-12-18T13:08:09;-0.90;99.90
59556;DHT22;45374;52.746;6.304;2022-12-18T13:10:40;-0.90;99.90
59556;DHT22;45374;52.746;6.304;2022-12-18T13:13:08;-0.90;99.90
59556;DHT22;45374;52.746;6.304;2022-12-18T13:18:23;-0.80;99.90
59556;DHT22;45374;52.746;6.304;2022-12-18T13:28:18;-0.80;99.90
59556;DHT22;45374;52.746;6.304;2022-12-18T13:30:53;-0.80;99.90
59556;DHT22;45374;52.746;6.304;2022-12-18T13:38:43;-0.70;99.90
59556;DHT22;45374;52.746;6.304;2022-12-18T13:41:22;-0.70;99.90
59556;DHT22;45374;52.746;6.304;2022-12-18T13:43:55;-0.70;99.90
59556;DHT22;45374;52.746;6.304;2022-12-18T13:46:43;-0.70;99.90
59556;DHT22;45374;52.746;6.304;2022-12-18T13:51:41;-0.70;99.90
59556;DHT22;45374;52.746;6.304;2022-12-18T13:54:36;-0.70;99.90
59556;DHT22;45374;52.746;6.304;2022-12-18T13:57:03;-0.70;99.90
59556;DHT22;45374;52.746;6.304;2022-12-18T14:02:30;-0.70;99.90
59556;DHT22;45374;52.746;6.304;2022-12-18T14:04:55;-0.80;99.90
59556;DHT22;45374;52.746;6.304;2022-12-18T14:07:23;-0.80;99.90
59556;DHT22;45374;52.746;6.304;2022-12-18T14:09:52;-0.80;99.90
59556;DHT22;45374;52.746;6.304;2022-12-18T14:12:22;-0.80;99.90
59556;DHT22;45374;52.746;6.304;2022-12-18T14:18:31;-0.80;99.90
59556;DHT22;45374;52.746;6.304;2022-12-18T14:20:51;-0.80;99.90
59556;DHT22;45374;52.746;6.304;2022-12-18T14:23:34;-0.90;99.90
59556;DHT22;45374;52.746;6.304;2022-12-18T14:26:25;-0.90;99.90
59556;DHT22;45374;52.746;6.304;2022-12-18T14:28:53;-0.90;99.90
59556;DHT22;45374;52.746;6.304;2022-12-18T14:31:30;-0.90;99.90
59556;DHT22;45374;52.746;6.304;2022-12-18T14:33:55;-0.90;99.90
59556;DHT22;45374;52.746;6.304;2022-12-18T14:36:25;-1.00;99.90
59556;DHT22;45374;52.746;6.304;2022-12-18T14:38:55;-1.00;99.90
59556;DHT22;45374;52.746;6.304;2022-12-18T14:41:22;-1.00;99.90
59556;DHT22;45374;52.746;6.304;2022-12-18T14:43:50;-1.00;99.90
59556;DHT22;45374;52.746;6.304;2022-12-18T14:46:35;-1.00;99.90
59556;DHT22;45374;52.746;6.304;2022-12-18T14:52:05;-1.00;99.90
59556;DHT22;45374;52.746;6.304;2022-12-18T14:54:32;-1.00;99.90
59556;DHT22;45374;52.746;6.304;2022-12-18T14:57:06;-1.00;99.90
59556;DHT22;45374;52.746;6.304;2022-12-18T14:59:41;-1.10;99.90
59556;DHT22;45374;52.746;6.304;2022-12-18T15:02:22;-1.10;99.90
59556;DHT22;45374;52.746;6.304;2022-12-18T15:05:21;-1.10;99.90
59556;DHT22;45374;52.746;6.304;2022-12-18T15:07:47;-1.10;99.90
59556;DHT22;45374;52.746;6.304;2022-12-18T15:10:19;-1.10;99.90
59556;DHT22;45374;52.746;6.304;2022-12-18T15:18:03;-1.10;99.90
59556;DHT22;45374;52.746;6.304;2022-12-18T15:25:43;-1.20;99.90
59556;DHT22;45374;52.746;6.304;2022-12-18T15:28:26;-1.20;99.90
59556;DHT22;45374;52.746;6.304;2022-12-18T15:36:23;-1.10;99.90
59556;DHT22;45374;52.746;6.304;2022-12-18T15:38:50;-1.10;99.90
59556;DHT22;45374;52.746;6.304;2022-12-18T15:41:17;-1.10;99.90
59556;DHT22;45374;52.746;6.304;2022-12-18T15:43:45;-1.10;99.90
59556;DHT22;45374;52.746;6.304;2022-12-18T15:46:18;-1.10;99.90
59556;DHT22;45374;52.746;6.304;2022-12-18T15:48:44;-1.10;99.90
59556;DHT22;45374;52.746;6.304;2022-12-18T15:51:37;-1.10;99.90
59556;DHT22;45374;52.746;6.304;2022-12-18T15:54:23;-1.10;99.90
59556;DHT22;45374;52.746;6.304;2022-12-18T15:57:11;-1.20;99.90
59556;DHT22;45374;52.746;6.304;2022-12-18T15:59:54;-1.10;99.90
59556;DHT22;45374;52.746;6.304;2022-12-18T16:02:21;-1.10;99.90
59556;DHT22;45374;52.746;6.304;2022-12-18T16:04:48;-1.10;99.90
59556;DHT22;45374;52.746;6.304;2022-12-18T16:07:14;-1.20;99.90
59556;DHT22;45374;52.746;6.304;2022-12-18T16:09:40;-1.10;99.90
59556;DHT22;45374;52.746;6.304;2022-12-18T16:12:08;-1.10;99.90
59556;DHT22;45374;52.746;6.304;2022-12-18T16:14:39;-1.10;99.90
59556;DHT22;45374;52.746;6.304;2022-12-18T16:17:09;-1.10;99.90
59556;DHT22;45374;52.746;6.304;2022-12-18T16:19:47;-1.10;99.90
59556;DHT22;45374;52.746;6.304;2022-12-18T16:22:24;-1.20;99.90
59556;DHT22;45374;52.746;6.304;2022-12-18T16:24:51;-1.10;99.90
59556;DHT22;45374;52.746;6.304;2022-12-18T16:27:17;-1.10;99.90
59556;DHT22;45374;52.746;6.304;2022-12-18T16:29:42;-1.10;99.90
59556;DHT22;45374;52.746;6.304;2022-12-18T16:32:16;-1.10;99.90
59556;DHT22;45374;52.746;6.304;2022-12-18T16:34:42;-1.10;99.90
59556;DHT22;45374;52.746;6.304;2022-12-18T16:37:10;-1.10;99.90
59556;DHT22;45374;52.746;6.304;2022-12-18T16:39:36;-1.10;99.90
59556;DHT22;45374;52.746;6.304;2022-12-18T16:42:18;-1.10;99.90
59556;DHT22;45374;52.746;6.304;2022-12-18T16:44:56;-1.10;99.90
59556;DHT22;45374;52.746;6.304;2022-12-18T16:47:22;-1.10;99.90
59556;DHT22;45374;52.746;6.304;2022-12-18T16:49:47;-1.10;99.90
59556;DHT22;45374;52.746;6.304;2022-12-18T16:52:16;-1.10;99.90
59556;DHT22;45374;52.746;6.304;2022-12-18T16:54:41;-1.10;99.90
59556;DHT22;45374;52.746;6.304;2022-12-18T16:57:10;-1.10;99.90
59556;DHT22;45374;52.746;6.304;2022-12-18T16:59:37;-1.10;99.90
59556;DHT22;45374;52.746;6.304;2022-12-18T17:02:02;-1.10;99.90
59556;DHT22;45374;52.746;6.304;2022-12-18T17:04:31;-1.10;99.90
59556;DHT22;45374;52.746;6.304;2022-12-18T17:06:56;-1.10;99.90
59556;DHT22;45374;52.746;6.304;2022-12-18T17:09:33;-1.10;99.90
59556;DHT22;45374;52.746;6.304;2022-12-18T17:11:59;-1.10;99.90
59556;DHT22;45374;52.746;6.304;2022-12-18T17:14:26;-1.10;99.90
59556;DHT22;45374;52.746;6.304;2022-12-18T17:16:53;-1.10;99.90
59556;DHT22;45374;52.746;6.304;2022-12-18T17:19:19;-1.10;99.90
59556;DHT22;45374;52.746;6.304;2022-12-18T17:21:47;-1.10;99.90
59556;DHT22;45374;52.746;6.304;2022-12-18T17:24:14;-1.10;99.90
59556;DHT22;45374;52.746;6.304;2022-12-18T17:26:39;-1.00;99.90
59556;DHT22;45374;52.746;6.304;2022-12-18T17:29:05;-1.00;99.90
59556;DHT22;45374;52.746;6.304;2022-12-18T17:31:31;-1.00;99.90
59556;DHT22;45374;52.746;6.304;2022-12-18T17:36:30;-1.10;99.90
59556;DHT22;45374;52.746;6.304;2022-12-18T17:38:58;-1.00;99.90
59556;DHT22;45374;52.746;6.304;2022-12-18T17:41:25;-1.00;99.90